International Virtual Aviation Organisation

Eastern Europe and Northern Asia MCD

 
UASK 121300Z 03004MPS 9999 NSC 12/03 Q1028 R12/CLRD60 NOSIG RMK QFE745/0994
QNH:(hPa/inHg/mmHg)1028 / 30.36 / 771
QFE:(hPa/inHg/mmHg)993 / 29.33 / 745
Temperature12
Dew Point3
Visibility> 10000
Weather
Cloud Cover
Transition Height1200 m./4900 ft.
Transition LevelFL60
SQUAWK